createdAt,value
2023-02-24T00:02:55.694Z,-4.58
2023-02-24T00:06:19.675Z,-4.63
2023-02-24T00:09:45.173Z,-4.61
2023-02-24T00:13:12.655Z,-4.56
2023-02-24T00:16:38.420Z,-4.57
2023-02-24T00:20:02.069Z,-4.57
2023-02-24T00:23:26.214Z,-4.54
2023-02-24T00:26:56.885Z,-4.54
2023-02-24T00:30:22.195Z,-4.53
2023-02-24T00:33:47.317Z,-4.53
2023-02-24T00:37:10.910Z,-4.54
2023-02-24T00:40:38.179Z,-4.54
2023-02-24T00:44:07.387Z,-4.63
2023-02-24T00:47:30.425Z,-4.53
2023-02-24T00:50:55.022Z,-4.55
2023-02-24T00:54:20.132Z,-4.52
2023-02-24T00:57:46.885Z,-4.51
2023-02-24T01:01:18.449Z,-4.49
2023-02-24T01:04:44.999Z,-4.48
2023-02-24T01:08:09.080Z,-4.47
2023-02-24T01:11:54.710Z,-4.46
2023-02-24T01:15:20.397Z,-4.45
2023-02-24T01:18:45.607Z,-4.43
2023-02-24T01:22:10.920Z,-4.47
2023-02-24T01:25:35.107Z,-4.44
2023-02-24T01:28:58.580Z,-4.46
2023-02-24T01:32:24.525Z,-4.42
2023-02-24T01:35:49.718Z,-4.42
2023-02-24T01:39:14.217Z,-4.45
2023-02-24T01:42:39.429Z,-4.39
2023-02-24T01:46:03.107Z,-4.39
2023-02-24T01:49:33.442Z,-4.38
2023-02-24T01:53:03.161Z,-4.37
2023-02-24T01:56:30.445Z,-4.37
2023-02-24T01:59:56.457Z,-4.35
2023-02-24T02:03:32.419Z,-4.33
2023-02-24T02:06:55.993Z,-4.33
2023-02-24T02:10:22.434Z,-4.32
2023-02-24T02:13:51.180Z,-4.33
2023-02-24T02:17:23.289Z,-4.31
2023-02-24T02:21:15.754Z,-4.27
2023-02-24T02:24:49.060Z,-4.44
2023-02-24T02:28:38.130Z,-4.24
2023-02-24T02:32:32.623Z,-4.24
2023-02-24T02:36:08.495Z,-4.22
2023-02-24T02:39:50.402Z,-4.21
2023-02-24T02:43:26.020Z,-4.35
2023-02-24T02:46:57.588Z,-4.17
2023-02-24T02:50:28.457Z,-4.16
2023-02-24T02:54:02.577Z,-4.16
2023-02-24T02:57:30.478Z,-4.18
2023-02-24T03:01:04.345Z,-4.10
2023-02-24T03:04:31.636Z,-4.28
2023-02-24T03:07:58.168Z,-4.08
2023-02-24T03:11:26.251Z,-4.07
2023-02-24T03:14:58.427Z,-4.06
2023-02-24T03:18:34.397Z,-4.03
2023-02-24T03:22:07.391Z,-4.02
2023-02-24T03:25:45.818Z,-4.01
2023-02-24T03:29:20.275Z,-3.99
2023-02-24T03:32:56.605Z,-4.00
2023-02-24T03:36:24.080Z,-3.96
2023-02-24T03:39:52.266Z,-3.94
2023-02-24T03:43:23.599Z,-3.93
2023-02-24T03:46:51.400Z,-3.90
2023-02-24T03:50:20.307Z,-3.89
2023-02-24T03:54:01.080Z,-3.87
2023-02-24T03:57:38.982Z,-3.86
2023-02-24T04:01:15.285Z,-3.84
2023-02-24T04:04:49.758Z,-3.85
2023-02-24T04:08:16.596Z,-3.85
2023-02-24T04:11:49.532Z,-3.86
2023-02-24T04:15:22.440Z,-3.82
2023-02-24T04:18:53.576Z,-3.80
2023-02-24T04:22:26.154Z,-3.82
2023-02-24T04:25:55.627Z,-3.74
2023-02-24T04:29:26.439Z,-3.75
2023-02-24T04:32:54.941Z,-3.73
2023-02-24T04:36:21.964Z,-3.74
2023-02-24T04:39:50.625Z,-3.74
2023-02-24T04:43:16.670Z,-3.69
2023-02-24T04:46:42.988Z,-3.69
2023-02-24T04:50:11.926Z,-3.67
2023-02-24T04:53:39.492Z,-3.66
2023-02-24T04:57:08.682Z,-3.66
2023-02-24T05:00:37.509Z,-3.73
2023-02-24T05:04:03.805Z,-3.66
2023-02-24T05:07:31.614Z,-3.66
2023-02-24T05:10:57.539Z,-3.62
2023-02-24T05:14:26.350Z,-3.59
2023-02-24T05:17:53.806Z,-3.57
2023-02-24T05:21:40.440Z,-3.55
2023-02-24T05:25:06.452Z,-3.54
2023-02-24T05:28:36.649Z,-3.51
2023-02-24T05:32:07.518Z,-3.48
2023-02-24T05:35:34.341Z,-3.54
2023-02-24T05:39:08.498Z,-3.43
2023-02-24T05:42:35.969Z,-3.43
2023-02-24T05:46:06.609Z,-3.39
2023-02-24T05:49:36.632Z,-3.39
2023-02-24T05:53:04.499Z,-3.36
2023-02-24T05:56:31.864Z,-3.31
2023-02-24T05:59:58.694Z,-3.29
2023-02-24T06:03:31.503Z,-3.27
2023-02-24T06:06:59.479Z,-3.23
2023-02-24T06:10:26.751Z,-3.21
2023-02-24T06:13:58.682Z,-3.19
2023-02-24T06:17:25.494Z,-3.11
2023-02-24T06:20:55.867Z,-3.10
2023-02-24T06:24:24.510Z,-3.07
2023-02-24T06:27:55.804Z,-3.02
2023-02-24T06:31:23.018Z,-3.00
2023-02-24T06:34:48.527Z,-2.93
2023-02-24T06:38:16.873Z,-2.97
2023-02-24T06:41:45.331Z,-2.86
2023-02-24T06:45:14.561Z,-2.81
2023-02-24T06:48:39.574Z,-2.77
2023-02-24T06:52:05.971Z,-2.76
2023-02-24T06:55:31.072Z,-2.74
2023-02-24T06:59:00.792Z,-2.70
2023-02-24T07:02:31.347Z,-2.72
2023-02-24T07:06:12.616Z,-2.60
2023-02-24T07:09:39.674Z,-2.56
2023-02-24T07:13:06.660Z,-2.53
2023-02-24T07:16:36.705Z,-2.47
2023-02-24T07:20:13.981Z,-2.43
2023-02-24T07:23:39.161Z,-2.39
2023-02-24T07:27:06.597Z,-2.38
2023-02-24T07:30:33.950Z,-2.33
2023-02-24T07:34:03.813Z,-2.29
2023-02-24T07:37:32.707Z,-2.26
2023-02-24T07:41:02.537Z,-2.23
2023-02-24T07:44:30.817Z,-2.19
2023-02-24T07:47:58.609Z,-2.13
2023-02-24T07:51:30.656Z,-2.02
2023-02-24T07:54:58.845Z,-1.97
2023-02-24T07:58:26.815Z,-1.92
2023-02-24T08:01:57.388Z,-1.80
2023-02-24T08:05:25.901Z,-1.67
2023-02-24T08:09:18.597Z,-1.58
2023-02-24T08:12:48.525Z,-1.45
2023-02-24T08:16:16.655Z,-1.41
2023-02-24T08:19:42.530Z,-1.30
2023-02-24T08:23:10.815Z,-1.16
2023-02-24T08:26:45.551Z,-1.06
2023-02-24T08:30:24.513Z,-1.06
2023-02-24T08:33:49.804Z,-0.97
2023-02-24T08:37:16.758Z,-0.95
2023-02-24T08:40:53.537Z,-0.86
2023-02-24T08:44:23.083Z,-0.81
2023-02-24T08:47:49.703Z,-0.72
2023-02-24T08:51:19.632Z,-0.65
2023-02-24T08:54:50.887Z,-0.59
2023-02-24T08:58:19.801Z,-0.50
2023-02-24T09:02:04.383Z,-0.47
2023-02-24T09:05:34.891Z,-0.46
2023-02-24T09:09:19.315Z,-0.36
2023-02-24T09:12:44.053Z,-0.32
2023-02-24T09:16:16.889Z,-0.28
2023-02-24T09:20:04.947Z,-0.24
2023-02-24T09:23:46.902Z,-0.25
2023-02-24T09:27:18.557Z,-0.20
2023-02-24T09:30:54.059Z,-0.21
2023-02-24T09:34:19.687Z,-0.23
2023-02-24T09:37:47.826Z,-0.19
2023-02-24T09:41:54.903Z,-0.24
2023-02-24T09:45:34.059Z,0.04
2023-02-24T09:49:06.125Z,0.06
2023-02-24T09:52:44.344Z,0.11
2023-02-24T09:56:23.585Z,0.19
2023-02-24T10:00:24.025Z,0.15
2023-02-24T10:04:08.798Z,0.19
2023-02-24T10:07:46.516Z,0.22
2023-02-24T10:11:17.812Z,0.23
2023-02-24T10:15:00.307Z,0.21
2023-02-24T10:18:34.910Z,0.20
2023-02-24T10:22:06.572Z,0.14
2023-02-24T10:25:56.429Z,0.02
2023-02-24T10:29:31.812Z,0.08
2023-02-24T10:33:00.873Z,0.09
2023-02-24T10:36:36.001Z,0.23
2023-02-24T10:40:10.949Z,0.29
2023-02-24T10:43:46.626Z,0.40
2023-02-24T10:47:19.760Z,0.50
2023-02-24T10:50:56.002Z,0.59
2023-02-24T10:54:35.685Z,0.66
2023-02-24T10:58:09.195Z,0.81
2023-02-24T11:01:55.767Z,0.91
2023-02-24T11:05:39.757Z,0.99
2023-02-24T11:09:20.748Z,1.02
2023-02-24T11:13:10.050Z,0.99
2023-02-24T11:17:02.873Z,1.00
2023-02-24T11:20:48.647Z,1.07
2023-02-24T11:24:21.766Z,1.19
2023-02-24T11:27:49.763Z,1.20
2023-02-24T11:31:28.784Z,1.23
2023-02-24T11:35:00.135Z,1.19
2023-02-24T11:38:40.709Z,1.06
2023-02-24T11:42:12.889Z,0.90
2023-02-24T11:45:43.942Z,0.99
2023-02-24T11:49:30.767Z,0.97
2023-02-24T11:53:00.098Z,0.89
2023-02-24T11:56:33.989Z,0.89
2023-02-24T12:00:14.419Z,0.79
2023-02-24T12:03:46.730Z,0.81
2023-02-24T12:07:23.054Z,0.83
2023-02-24T12:10:53.742Z,0.79
2023-02-24T12:14:38.622Z,0.83
2023-02-24T12:18:08.953Z,0.85
2023-02-24T12:21:39.623Z,0.87
2023-02-24T12:25:05.827Z,0.89
2023-02-24T12:28:45.279Z,0.97
2023-02-24T12:32:23.225Z,1.07
2023-02-24T12:35:54.750Z,1.12
2023-02-24T12:39:25.792Z,1.16
2023-02-24T12:43:00.220Z,1.09
2023-02-24T12:46:29.122Z,1.09
2023-02-24T12:50:08.876Z,1.01
2023-02-24T12:53:42.074Z,0.92
2023-02-24T12:57:14.966Z,0.82
2023-02-24T13:00:58.925Z,0.69
2023-02-24T13:04:43.384Z,0.72
2023-02-24T13:08:24.268Z,0.65
2023-02-24T13:11:55.013Z,0.52
2023-02-24T13:15:24.005Z,0.56
2023-02-24T13:18:49.119Z,0.53
2023-02-24T13:22:29.424Z,0.46
2023-02-24T13:25:58.897Z,0.43
2023-02-24T13:29:23.899Z,0.38
2023-02-24T13:33:02.339Z,0.33
2023-02-24T13:36:29.892Z,0.26
2023-02-24T13:39:55.928Z,0.23
2023-02-24T13:43:34.149Z,0.19
2023-02-24T13:47:32.346Z,0.14
2023-02-24T13:51:21.199Z,0.10
2023-02-24T13:55:24.424Z,0.08
2023-02-24T13:59:32.838Z,0.05
2023-02-24T14:02:59.377Z,-0.03
2023-02-24T14:06:28.178Z,-0.15
2023-02-24T14:10:00.069Z,-0.29
2023-02-24T14:13:30.735Z,-0.36
2023-02-24T14:17:00.149Z,-0.33
2023-02-24T14:20:27.869Z,-0.37
2023-02-24T14:24:02.065Z,-0.44
2023-02-24T14:27:30.176Z,-0.43
2023-02-24T14:31:02.476Z,-0.43
2023-02-24T14:34:32.067Z,-0.64
2023-02-24T14:37:57.074Z,-0.45
2023-02-24T14:41:29.043Z,-0.53
2023-02-24T14:44:56.928Z,-0.48
2023-02-24T14:48:28.886Z,-0.49
2023-02-24T14:52:02.195Z,-0.49
2023-02-24T14:55:31.092Z,-0.61
2023-02-24T14:59:03.982Z,-0.66
2023-02-24T15:02:36.064Z,-0.70
2023-02-24T15:06:09.463Z,-0.79
2023-02-24T15:09:45.213Z,-0.81
2023-02-24T15:13:19.252Z,-0.78
2023-02-24T15:16:49.290Z,-0.80
2023-02-24T15:20:38.193Z,-0.80
2023-02-24T15:24:07.749Z,-0.79
2023-02-24T15:27:34.257Z,-0.81
2023-02-24T15:31:11.320Z,-0.89
2023-02-24T15:34:43.556Z,-0.92
2023-02-24T15:38:10.001Z,-0.99
2023-02-24T15:41:43.274Z,-1.09
2023-02-24T15:45:27.762Z,-1.09
2023-02-24T15:48:54.425Z,-1.11
2023-02-24T15:52:21.248Z,-1.16
2023-02-24T15:55:46.890Z,-1.18
2023-02-24T15:59:13.011Z,-1.20
2023-02-24T16:02:38.953Z,-1.19
2023-02-24T16:06:03.016Z,-1.25
2023-02-24T16:09:37.568Z,-1.29
2023-02-24T16:13:03.003Z,-1.31
2023-02-24T16:16:28.256Z,-1.37
2023-02-24T16:19:53.200Z,-1.38
2023-02-24T16:23:17.033Z,-1.36
2023-02-24T16:26:42.702Z,-1.41
2023-02-24T16:30:07.414Z,-1.46
2023-02-24T16:33:31.109Z,-1.45
2023-02-24T16:36:58.655Z,-1.44
2023-02-24T16:40:25.813Z,-1.42
2023-02-24T16:43:49.047Z,-1.44
2023-02-24T16:47:16.848Z,-1.52
2023-02-24T16:50:42.984Z,-1.57
2023-02-24T16:54:09.017Z,-1.57
2023-02-24T16:57:32.284Z,-1.61
2023-02-24T17:01:03.141Z,-1.67
2023-02-24T17:04:27.658Z,-1.67
2023-02-24T17:07:51.206Z,-1.73
2023-02-24T17:11:18.976Z,-1.74
2023-02-24T17:14:45.828Z,-1.76
2023-02-24T17:18:11.248Z,-1.76
2023-02-24T17:21:34.207Z,-1.77
2023-02-24T17:24:58.528Z,-1.74
2023-02-24T17:28:24.015Z,-1.75
2023-02-24T17:31:48.217Z,-1.77
2023-02-24T17:35:13.253Z,-1.76
2023-02-24T17:38:37.204Z,-1.77
2023-02-24T17:42:00.572Z,-1.77
2023-02-24T17:45:25.472Z,-1.78
2023-02-24T17:48:49.050Z,-1.81
2023-02-24T17:52:13.283Z,-1.87
2023-02-24T17:55:37.332Z,-1.88
2023-02-24T17:59:02.031Z,-1.92
2023-02-24T18:02:27.531Z,-1.91
2023-02-24T18:05:59.916Z,-1.91
2023-02-24T18:09:24.135Z,-1.89
2023-02-24T18:12:47.679Z,-1.90
2023-02-24T18:16:13.056Z,-1.91
2023-02-24T18:19:38.614Z,-1.90
2023-02-24T18:23:02.300Z,-1.89
2023-02-24T18:26:28.934Z,-1.91
2023-02-24T18:29:53.233Z,-1.91
2023-02-24T18:33:17.214Z,-1.99
2023-02-24T18:36:42.842Z,-1.90
2023-02-24T18:40:06.752Z,-1.93
2023-02-24T18:43:30.295Z,-1.99
2023-02-24T18:46:54.114Z,-1.95
2023-02-24T18:50:18.172Z,-1.99
2023-02-24T18:53:44.300Z,-1.99
2023-02-24T18:57:08.172Z,-2.04
2023-02-24T19:00:33.089Z,-2.02
2023-02-24T19:03:57.380Z,-2.02
2023-02-24T19:07:20.951Z,-2.04
2023-02-24T19:10:47.085Z,-2.09
2023-02-24T19:14:14.968Z,-1.98
2023-02-24T19:17:38.190Z,-1.99
2023-02-24T19:21:02.730Z,-1.96
2023-02-24T19:24:27.017Z,-1.94
2023-02-24T19:27:52.580Z,-1.94
2023-02-24T19:31:18.716Z,-1.95
2023-02-24T19:34:42.145Z,-1.96
2023-02-24T19:38:06.130Z,-1.98
2023-02-24T19:41:32.359Z,-1.94
2023-02-24T19:44:58.237Z,-1.95
2023-02-24T19:48:22.212Z,-1.96
2023-02-24T19:51:48.354Z,-1.96
2023-02-24T19:55:14.215Z,-2.01
2023-02-24T19:58:38.738Z,-1.98
2023-02-24T20:02:04.555Z,-2.00
2023-02-24T20:05:28.951Z,-2.10
2023-02-24T20:08:53.250Z,-2.08
2023-02-24T20:12:18.150Z,-2.09
2023-02-24T20:15:41.008Z,-2.10
2023-02-24T20:19:06.938Z,-2.17
2023-02-24T20:22:30.428Z,-2.14
2023-02-24T20:25:55.011Z,-2.12
2023-02-24T20:29:19.928Z,-2.14
2023-02-24T20:32:43.802Z,-2.17
2023-02-24T20:36:14.226Z,-2.16
2023-02-24T20:39:36.978Z,-2.18
2023-02-24T20:43:00.458Z,-2.35
2023-02-24T20:46:26.350Z,-2.22
2023-02-24T20:49:53.233Z,-2.15
2023-02-24T20:53:18.288Z,-2.17
2023-02-24T20:56:43.455Z,-2.17
2023-02-24T21:00:08.462Z,-2.15
2023-02-24T21:03:32.861Z,-2.19
2023-02-24T21:06:57.145Z,-2.20
2023-02-24T21:10:26.035Z,-2.21
2023-02-24T21:13:50.954Z,-2.19
2023-02-24T21:17:15.148Z,-2.22
2023-02-24T21:20:38.293Z,-2.28
2023-02-24T21:24:02.080Z,-2.27
2023-02-24T21:27:27.297Z,-2.21
2023-02-24T21:30:52.091Z,-2.23
2023-02-24T21:34:17.134Z,-2.29
2023-02-24T21:37:42.044Z,-2.32
2023-02-24T21:41:08.354Z,-2.22
2023-02-24T21:44:34.181Z,-2.22
2023-02-24T21:47:57.322Z,-2.24
2023-02-24T21:51:21.235Z,-2.23
2023-02-24T21:54:46.023Z,-2.29
2023-02-24T21:58:09.341Z,-2.20
2023-02-24T22:01:36.385Z,-2.21
2023-02-24T22:05:00.335Z,-2.24
2023-02-24T22:08:23.810Z,-2.23
2023-02-24T22:11:47.336Z,-2.31
2023-02-24T22:15:13.533Z,-2.24
2023-02-24T22:18:38.109Z,-2.29
2023-02-24T22:22:02.518Z,-2.27
2023-02-24T22:25:26.094Z,-2.32
2023-02-24T22:28:50.474Z,-2.36
2023-02-24T22:32:14.211Z,-2.32
2023-02-24T22:35:39.978Z,-2.35
2023-02-24T22:39:04.369Z,-2.39
2023-02-24T22:42:27.949Z,-2.40
2023-02-24T22:46:01.051Z,-2.40
2023-02-24T22:49:24.932Z,-2.44
2023-02-24T22:52:49.726Z,-2.43
2023-02-24T22:56:14.378Z,-2.46
2023-02-24T22:59:37.597Z,-2.43
2023-02-24T23:03:02.194Z,-2.45
2023-02-24T23:06:27.304Z,-2.55
2023-02-24T23:09:54.252Z,-2.54
2023-02-24T23:13:18.552Z,-2.53
2023-02-24T23:16:43.266Z,-2.56
2023-02-24T23:20:13.276Z,-2.54
2023-02-24T23:23:37.157Z,-2.55
2023-02-24T23:27:02.889Z,-2.57
2023-02-24T23:30:26.354Z,-2.58
2023-02-24T23:33:51.559Z,-2.60
2023-02-24T23:37:15.409Z,-2.61
2023-02-24T23:40:49.552Z,-2.62
2023-02-24T23:44:16.113Z,-2.64
2023-02-24T23:47:39.997Z,-2.67
2023-02-24T23:51:06.129Z,-2.66
2023-02-24T23:54:30.117Z,-2.66
2023-02-24T23:57:53.440Z,-2.70
